sensor_id;sensor_type;location;lat;lon;timestamp;pressure;altitude;pressure_sealevel;temperature;humidity
19789;BME280;10054;59.332;18.244;2023-02-11T00:01:34;99587.14;;;1.20;100.00
19789;BME280;10054;59.332;18.244;2023-02-11T00:04:05;99590.98;;;1.22;100.00
19789;BME280;10054;59.332;18.244;2023-02-11T00:06:34;99583.19;;;1.22;100.00
19789;BME280;10054;59.332;18.244;2023-02-11T00:09:04;99578.89;;;1.21;100.00
19789;BME280;10054;59.332;18.244;2023-02-11T00:11:33;99572.86;;;1.20;100.00
19789;BME280;10054;59.332;18.244;2023-02-11T00:14:04;99578.50;;;1.20;100.00
19789;BME280;10054;59.332;18.244;2023-02-11T00:16:36;99567.72;;;1.19;100.00
19789;BME280;10054;59.332;18.244;2023-02-11T00:19:05;99564.67;;;1.19;100.00
19789;BME280;10054;59.332;18.244;2023-02-11T00:21:34;99565.52;;;1.20;100.00
19789;BME280;10054;59.332;18.244;2023-02-11T00:24:03;99563.77;;;1.20;100.00
19789;BME280;10054;59.332;18.244;2023-02-11T00:26:33;99565.91;;;1.21;100.00
19789;BME280;10054;59.332;18.244;2023-02-11T00:29:03;99559.02;;;1.20;100.00
19789;BME280;10054;59.332;18.244;2023-02-11T00:31:33;99563.25;;;1.22;100.00
19789;BME280;10054;59.332;18.244;2023-02-11T00:34:02;99555.06;;;1.21;100.00
19789;BME280;10054;59.332;18.244;2023-02-11T00:36:30;99555.45;;;1.22;100.00
19789;BME280;10054;59.332;18.244;2023-02-11T00:38:59;99548.50;;;1.23;100.00
19789;BME280;10054;59.332;18.244;2023-02-11T00:41:28;99552.79;;;1.24;100.00
19789;BME280;10054;59.332;18.244;2023-02-11T00:43:59;99557.08;;;1.25;100.00
19789;BME280;10054;59.332;18.244;2023-02-11T00:46:27;99554.42;;;1.26;100.00
19789;BME280;10054;59.332;18.244;2023-02-11T00:48:56;99549.55;;;1.29;100.00
19789;BME280;10054;59.332;18.244;2023-02-11T00:51:26;99545.20;;;1.29;100.00
19789;BME280;10054;59.332;18.244;2023-02-11T00:53:56;99528.70;;;1.30;100.00
19789;BME280;10054;59.332;18.244;2023-02-11T00:56:25;99535.20;;;1.30;100.00
19789;BME280;10054;59.332;18.244;2023-02-11T00:58:55;99532.98;;;1.31;100.00
19789;BME280;10054;59.332;18.244;2023-02-11T01:01:24;99527.34;;;1.32;100.00
19789;BME280;10054;59.332;18.244;2023-02-11T01:03:53;99528.58;;;1.34;100.00
19789;BME280;10054;59.332;18.244;2023-02-11T01:06:23;99529.35;;;1.36;100.00
19789;BME280;10054;59.332;18.244;2023-02-11T01:08:51;99533.96;;;1.39;100.00
19789;BME280;10054;59.332;18.244;2023-02-11T01:11:20;99524.12;;;1.56;100.00
19789;BME280;10054;59.332;18.244;2023-02-11T01:13:49;99528.34;;;1.58;100.00
19789;BME280;10054;59.332;18.244;2023-02-11T01:16:19;99522.49;;;1.53;100.00
19789;BME280;10054;59.332;18.244;2023-02-11T01:18:48;99522.69;;;1.49;100.00
19789;BME280;10054;59.332;18.244;2023-02-11T01:21:17;99524.67;;;1.44;100.00
19789;BME280;10054;59.332;18.244;2023-02-11T01:23:46;99527.02;;;1.40;100.00
19789;BME280;10054;59.332;18.244;2023-02-11T01:26:15;99528.31;;;1.40;100.00
19789;BME280;10054;59.332;18.244;2023-02-11T01:28:44;99526.23;;;1.38;100.00
19789;BME280;10054;59.332;18.244;2023-02-11T01:31:13;99522.80;;;1.37;100.00
19789;BME280;10054;59.332;18.244;2023-02-11T01:33:42;99518.89;;;1.37;100.00
19789;BME280;10054;59.332;18.244;2023-02-11T01:36:11;99511.10;;;1.37;100.00
19789;BME280;10054;59.332;18.244;2023-02-11T01:38:40;99511.94;;;1.38;100.00
19789;BME280;10054;59.332;18.244;2023-02-11T01:41:12;99506.75;;;1.38;100.00
19789;BME280;10054;59.332;18.244;2023-02-11T01:43:44;99503.70;;;1.38;100.00
19789;BME280;10054;59.332;18.244;2023-02-11T01:46:35;99492.84;;;1.39;100.00
19789;BME280;10054;59.332;18.244;2023-02-11T01:49:06;99494.53;;;1.40;100.00
19789;BME280;10054;59.332;18.244;2023-02-11T01:51:52;99493.69;;;1.39;100.00
19789;BME280;10054;59.332;18.244;2023-02-11T01:54:19;99505.77;;;1.40;100.00
19789;BME280;10054;59.332;18.244;2023-02-11T01:57:06;99512.66;;;1.41;100.00
19789;BME280;10054;59.332;18.244;2023-02-11T02:08:20;99513.77;;;1.46;100.00
19789;BME280;10054;59.332;18.244;2023-02-11T02:10:50;99512.39;;;1.47;100.00
19789;BME280;10054;59.332;18.244;2023-02-11T02:13:23;99499.69;;;1.50;100.00
19789;BME280;10054;59.332;18.244;2023-02-11T02:15:54;99503.52;;;1.51;100.00
19789;BME280;10054;59.332;18.244;2023-02-11T02:32:28;99507.92;;;1.70;100.00
19789;BME280;10054;59.332;18.244;2023-02-11T02:40:50;99530.35;;;1.62;100.00
19789;BME280;10054;59.332;18.244;2023-02-11T02:43:15;99523.85;;;1.62;100.00
19789;BME280;10054;59.332;18.244;2023-02-11T02:45:44;99529.96;;;1.61;100.00
19789;BME280;10054;59.332;18.244;2023-02-11T02:48:32;99526.06;;;1.61;100.00
19789;BME280;10054;59.332;18.244;2023-02-11T02:54:35;99531.13;;;1.64;100.00
19789;BME280;10054;59.332;18.244;2023-02-11T03:02:17;99539.51;;;1.71;100.00
19789;BME280;10054;59.332;18.244;2023-02-11T03:04:55;99548.86;;;1.75;100.00
19789;BME280;10054;59.332;18.244;2023-02-11T03:07:26;99551.78;;;1.77;100.00
19789;BME280;10054;59.332;18.244;2023-02-11T03:10:05;99547.69;;;1.82;100.00
19789;BME280;10054;59.332;18.244;2023-02-11T03:12:32;99540.84;;;1.89;100.00
19789;BME280;10054;59.332;18.244;2023-02-11T03:15:04;99549.16;;;1.97;100.00
19789;BME280;10054;59.332;18.244;2023-02-11T03:17:34;99548.11;;;2.02;100.00
19789;BME280;10054;59.332;18.244;2023-02-11T03:20:05;99552.83;;;2.12;100.00
19789;BME280;10054;59.332;18.244;2023-02-11T03:22:43;99564.40;;;2.15;100.00
19789;BME280;10054;59.332;18.244;2023-02-11T03:25:07;99562.25;;;2.15;100.00
19789;BME280;10054;59.332;18.244;2023-02-11T03:28:02;99567.38;;;2.16;100.00
19789;BME280;10054;59.332;18.244;2023-02-11T03:30:48;99573.96;;;2.15;100.00
19789;BME280;10054;59.332;18.244;2023-02-11T03:33:21;99568.69;;;2.16;100.00
19789;BME280;10054;59.332;18.244;2023-02-11T03:36:10;99577.54;;;2.12;100.00
19789;BME280;10054;59.332;18.244;2023-02-11T03:38:36;99580.28;;;2.09;100.00
19789;BME280;10054;59.332;18.244;2023-02-11T03:41:06;99583.93;;;2.05;100.00
19789;BME280;10054;59.332;18.244;2023-02-11T03:43:45;99587.12;;;2.02;100.00
19789;BME280;10054;59.332;18.244;2023-02-11T03:46:16;99580.30;;;1.99;100.00
19789;BME280;10054;59.332;18.244;2023-02-11T03:48:48;99574.91;;;1.93;100.00
19789;BME280;10054;59.332;18.244;2023-02-11T03:51:17;99593.70;;;1.90;100.00
19789;BME280;10054;59.332;18.244;2023-02-11T03:53:47;99591.82;;;1.83;100.00
19789;BME280;10054;59.332;18.244;2023-02-11T03:56:20;99598.91;;;1.80;100.00
19789;BME280;10054;59.332;18.244;2023-02-11T03:58:49;99604.30;;;1.75;100.00
19789;BME280;10054;59.332;18.244;2023-02-11T04:01:18;99602.68;;;1.73;100.00
19789;BME280;10054;59.332;18.244;2023-02-11T04:03:46;99610.16;;;1.70;100.00
19789;BME280;10054;59.332;18.244;2023-02-11T04:06:15;99621.20;;;1.65;100.00
19789;BME280;10054;59.332;18.244;2023-02-11T04:08:43;99630.43;;;1.62;100.00
19789;BME280;10054;59.332;18.244;2023-02-11T04:11:12;99643.95;;;1.60;100.00
19789;BME280;10054;59.332;18.244;2023-02-11T04:13:41;99645.30;;;1.58;100.00
19789;BME280;10054;59.332;18.244;2023-02-11T04:16:10;99640.69;;;1.55;100.00
19789;BME280;10054;59.332;18.244;2023-02-11T04:18:43;99653.36;;;1.52;100.00
19789;BME280;10054;59.332;18.244;2023-02-11T04:21:11;99657.37;;;1.49;100.00
19789;BME280;10054;59.332;18.244;2023-02-11T04:23:40;99660.53;;;1.47;100.00
19789;BME280;10054;59.332;18.244;2023-02-11T04:26:09;99666.81;;;1.42;100.00
19789;BME280;10054;59.332;18.244;2023-02-11T04:28:37;99665.64;;;1.39;100.00
19789;BME280;10054;59.332;18.244;2023-02-11T04:31:06;99674.41;;;1.36;100.00
19789;BME280;10054;59.332;18.244;2023-02-11T04:33:34;99674.07;;;1.34;100.00
19789;BME280;10054;59.332;18.244;2023-02-11T04:36:03;99681.53;;;1.31;100.00
19789;BME280;10054;59.332;18.244;2023-02-11T04:38:31;99683.25;;;1.20;100.00
19789;BME280;10054;59.332;18.244;2023-02-11T04:41:00;99678.97;;;1.19;100.00
19789;BME280;10054;59.332;18.244;2023-02-11T04:43:28;99687.73;;;1.17;100.00
19789;BME280;10054;59.332;18.244;2023-02-11T04:45:57;99698.69;;;1.13;100.00
19789;BME280;10054;59.332;18.244;2023-02-11T04:48:26;99705.30;;;1.10;100.00
19789;BME280;10054;59.332;18.244;2023-02-11T04:50:55;99711.00;;;1.08;100.00
19789;BME280;10054;59.332;18.244;2023-02-11T04:53:24;99709.88;;;1.04;100.00
19789;BME280;10054;59.332;18.244;2023-02-11T04:55:53;99718.24;;;1.00;100.00
19789;BME280;10054;59.332;18.244;2023-02-11T04:58:21;99717.45;;;0.98;100.00
19789;BME280;10054;59.332;18.244;2023-02-11T05:00:51;99728.41;;;0.94;100.00
19789;BME280;10054;59.332;18.244;2023-02-11T05:03:20;99740.66;;;0.91;100.00
19789;BME280;10054;59.332;18.244;2023-02-11T05:05:49;99746.75;;;0.90;100.00
19789;BME280;10054;59.332;18.244;2023-02-11T05:08:18;99742.06;;;0.88;100.00
19789;BME280;10054;59.332;18.244;2023-02-11T05:10:47;99753.92;;;0.83;100.00
19789;BME280;10054;59.332;18.244;2023-02-11T05:13:16;99762.66;;;0.81;100.00
19789;BME280;10054;59.332;18.244;2023-02-11T05:15:44;99767.27;;;0.74;100.00
19789;BME280;10054;59.332;18.244;2023-02-11T05:18:13;99787.30;;;0.71;100.00
19789;BME280;10054;59.332;18.244;2023-02-11T05:20:43;99789.89;;;0.71;100.00
19789;BME280;10054;59.332;18.244;2023-02-11T05:23:12;99791.75;;;0.67;100.00
19789;BME280;10054;59.332;18.244;2023-02-11T05:25:40;99797.09;;;0.62;100.00
19789;BME280;10054;59.332;18.244;2023-02-11T05:28:09;99812.38;;;0.58;100.00
19789;BME280;10054;59.332;18.244;2023-02-11T05:30:38;99825.01;;;0.56;100.00
19789;BME280;10054;59.332;18.244;2023-02-11T05:33:07;99839.78;;;0.54;100.00
19789;BME280;10054;59.332;18.244;2023-02-11T05:35:36;99837.24;;;0.52;100.00
19789;BME280;10054;59.332;18.244;2023-02-11T05:38:05;99855.96;;;0.49;100.00
19789;BME280;10054;59.332;18.244;2023-02-11T05:40:34;99860.45;;;0.44;100.00
19789;BME280;10054;59.332;18.244;2023-02-11T05:43:03;99863.15;;;0.41;100.00
19789;BME280;10054;59.332;18.244;2023-02-11T05:45:32;99871.33;;;0.28;100.00
19789;BME280;10054;59.332;18.244;2023-02-11T05:48:02;99874.27;;;0.31;100.00
19789;BME280;10054;59.332;18.244;2023-02-11T05:50:30;99887.05;;;0.24;100.00
19789;BME280;10054;59.332;18.244;2023-02-11T05:52:59;99880.52;;;0.25;100.00
19789;BME280;10054;59.332;18.244;2023-02-11T05:55:27;99900.06;;;0.22;100.00
19789;BME280;10054;59.332;18.244;2023-02-11T05:57:56;99908.74;;;0.21;100.00
19789;BME280;10054;59.332;18.244;2023-02-11T06:00:25;99917.06;;;0.18;100.00
19789;BME280;10054;59.332;18.244;2023-02-11T06:02:54;99924.84;;;0.18;100.00
19789;BME280;10054;59.332;18.244;2023-02-11T06:05:23;99930.48;;;0.17;100.00
19789;BME280;10054;59.332;18.244;2023-02-11T06:07:52;99934.16;;;0.10;100.00
19789;BME280;10054;59.332;18.244;2023-02-11T06:10:21;99948.52;;;0.07;100.00
19789;BME280;10054;59.332;18.244;2023-02-11T06:12:49;99947.85;;;0.00;100.00
19789;BME280;10054;59.332;18.244;2023-02-11T06:15:18;99952.36;;;-0.05;100.00
19789;BME280;10054;59.332;18.244;2023-02-11T06:17:47;99958.03;;;-0.07;100.00
19789;BME280;10054;59.332;18.244;2023-02-11T06:20:16;99954.28;;;-0.11;100.00
19789;BME280;10054;59.332;18.244;2023-02-11T06:22:45;99960.41;;;-0.14;100.00
19789;BME280;10054;59.332;18.244;2023-02-11T06:25:14;99978.59;;;-0.15;100.00
19789;BME280;10054;59.332;18.244;2023-02-11T06:27:42;99992.98;;;-0.20;100.00
19789;BME280;10054;59.332;18.244;2023-02-11T06:30:11;100006.08;;;-0.24;100.00
19789;BME280;10054;59.332;18.244;2023-02-11T06:32:40;100003.93;;;-0.25;100.00
19789;BME280;10054;59.332;18.244;2023-02-11T06:35:09;100024.80;;;-0.29;100.00
19789;BME280;10054;59.332;18.244;2023-02-11T06:37:38;100027.64;;;-0.39;100.00
19789;BME280;10054;59.332;18.244;2023-02-11T06:40:07;100027.27;;;-0.41;100.00
19789;BME280;10054;59.332;18.244;2023-02-11T06:42:36;100027.36;;;-0.44;100.00
19789;BME280;10054;59.332;18.244;2023-02-11T06:45:09;100033.51;;;-0.48;100.00
19789;BME280;10054;59.332;18.244;2023-02-11T06:47:39;100046.83;;;-0.46;100.00
19789;BME280;10054;59.332;18.244;2023-02-11T06:50:11;100052.05;;;-0.47;100.00
19789;BME280;10054;59.332;18.244;2023-02-11T06:52:40;100053.34;;;-0.47;100.00
19789;BME280;10054;59.332;18.244;2023-02-11T06:55:09;100056.87;;;-0.50;100.00
19789;BME280;10054;59.332;18.244;2023-02-11T06:57:39;100060.51;;;-0.57;100.00
19789;BME280;10054;59.332;18.244;2023-02-11T07:00:08;100069.13;;;-0.56;100.00
19789;BME280;10054;59.332;18.244;2023-02-11T07:02:37;100076.45;;;-0.56;100.00
19789;BME280;10054;59.332;18.244;2023-02-11T07:05:07;100083.78;;;-0.55;100.00
19789;BME280;10054;59.332;18.244;2023-02-11T07:07:36;100091.64;;;-0.58;100.00
19789;BME280;10054;59.332;18.244;2023-02-11T07:10:06;100104.99;;;-0.57;100.00
19789;BME280;10054;59.332;18.244;2023-02-11T07:12:34;100128.27;;;-0.56;100.00
19789;BME280;10054;59.332;18.244;2023-02-11T07:15:03;100131.75;;;-0.57;100.00
19789;BME280;10054;59.332;18.244;2023-02-11T07:17:34;100140.52;;;-0.62;100.00
19789;BME280;10054;59.332;18.244;2023-02-11T07:20:03;100149.11;;;-0.60;100.00
19789;BME280;10054;59.332;18.244;2023-02-11T07:22:33;100155.10;;;-0.58;100.00
19789;BME280;10054;59.332;18.244;2023-02-11T07:25:02;100174.05;;;-0.56;100.00
19789;BME280;10054;59.332;18.244;2023-02-11T07:27:30;100185.19;;;-0.53;100.00
19789;BME280;10054;59.332;18.244;2023-02-11T07:29:59;100196.37;;;-0.51;100.00
19789;BME280;10054;59.332;18.244;2023-02-11T07:32:28;100207.11;;;-0.48;100.00
19789;BME280;10054;59.332;18.244;2023-02-11T07:34:57;100208.44;;;-0.50;100.00
19789;BME280;10054;59.332;18.244;2023-02-11T07:37:26;100217.91;;;-0.49;100.00
19789;BME280;10054;59.332;18.244;2023-02-11T07:39:55;100224.72;;;-0.45;100.00
19789;BME280;10054;59.332;18.244;2023-02-11T07:42:24;100232.12;;;-0.47;100.00
19789;BME280;10054;59.332;18.244;2023-02-11T07:44:52;100245.48;;;-0.46;100.00
19789;BME280;10054;59.332;18.244;2023-02-11T07:47:21;100254.89;;;-0.42;100.00
19789;BME280;10054;59.332;18.244;2023-02-11T07:49:50;100257.01;;;-0.40;100.00
19789;BME280;10054;59.332;18.244;2023-02-11T07:52:18;100264.74;;;-0.39;100.00
19789;BME280;10054;59.332;18.244;2023-02-11T07:54:48;100261.30;;;-0.39;100.00
19789;BME280;10054;59.332;18.244;2023-02-11T07:57:17;100275.45;;;-0.35;100.00
19789;BME280;10054;59.332;18.244;2023-02-11T07:59:45;100282.78;;;-0.34;100.00
19789;BME280;10054;59.332;18.244;2023-02-11T08:02:14;100293.59;;;-0.35;100.00
19789;BME280;10054;59.332;18.244;2023-02-11T08:04:47;100302.08;;;-0.28;100.00
19789;BME280;10054;59.332;18.244;2023-02-11T08:07:16;100315.41;;;-0.25;100.00
19789;BME280;10054;59.332;18.244;2023-02-11T08:09:45;100321.78;;;-0.21;100.00
19789;BME280;10054;59.332;18.244;2023-02-11T08:12:13;100346.23;;;-0.13;100.00
19789;BME280;10054;59.332;18.244;2023-02-11T08:14:42;100347.39;;;-0.07;100.00
19789;BME280;10054;59.332;18.244;2023-02-11T08:17:10;100358.58;;;-0.05;100.00
19789;BME280;10054;59.332;18.244;2023-02-11T08:19:39;100368.02;;;-0.03;100.00
19789;BME280;10054;59.332;18.244;2023-02-11T08:22:08;100367.58;;;-0.02;100.00
19789;BME280;10054;59.332;18.244;2023-02-11T08:24:36;100376.24;;;-0.03;100.00
19789;BME280;10054;59.332;18.244;2023-02-11T08:27:05;100392.96;;;0.02;100.00
19789;BME280;10054;59.332;18.244;2023-02-11T08:29:33;100406.71;;;0.05;100.00
19789;BME280;10054;59.332;18.244;2023-02-11T08:32:02;100409.67;;;0.08;100.00
19789;BME280;10054;59.332;18.244;2023-02-11T08:34:31;100420.49;;;0.07;100.00
19789;BME280;10054;59.332;18.244;2023-02-11T08:37:00;100427.39;;;0.08;100.00
19789;BME280;10054;59.332;18.244;2023-02-11T08:39:28;100435.92;;;0.13;100.00
19789;BME280;10054;59.332;18.244;2023-02-11T08:41:57;100456.77;;;0.09;100.00
19789;BME280;10054;59.332;18.244;2023-02-11T08:44:26;100462.70;;;0.14;100.00
19789;BME280;10054;59.332;18.244;2023-02-11T08:46:55;100468.17;;;0.21;100.00
19789;BME280;10054;59.332;18.244;2023-02-11T08:49:24;100482.78;;;0.25;100.00
19789;BME280;10054;59.332;18.244;2023-02-11T08:51:53;100496.26;;;0.21;100.00
19789;BME280;10054;59.332;18.244;2023-02-11T08:54:22;100502.47;;;0.14;100.00
19789;BME280;10054;59.332;18.244;2023-02-11T08:56:51;100512.19;;;0.05;100.00
19789;BME280;10054;59.332;18.244;2023-02-11T08:59:20;100525.97;;;0.07;100.00
19789;BME280;10054;59.332;18.244;2023-02-11T09:01:49;100541.09;;;0.07;100.00
19789;BME280;10054;59.332;18.244;2023-02-11T09:04:18;100548.94;;;0.04;100.00
19789;BME280;10054;59.332;18.244;2023-02-11T09:06:47;100563.27;;;0.01;100.00
19789;BME280;10054;59.332;18.244;2023-02-11T09:09:17;100564.68;;;-0.04;100.00
19789;BME280;10054;59.332;18.244;2023-02-11T09:11:45;100579.39;;;-0.04;100.00
19789;BME280;10054;59.332;18.244;2023-02-11T09:14:20;100599.75;;;-0.07;100.00
19789;BME280;10054;59.332;18.244;2023-02-11T09:16:50;100611.48;;;-0.10;100.00
19789;BME280;10054;59.332;18.244;2023-02-11T09:19:19;100628.77;;;-0.10;100.00
19789;BME280;10054;59.332;18.244;2023-02-11T09:21:49;100634.45;;;-0.14;100.00
19789;BME280;10054;59.332;18.244;2023-02-11T09:24:18;100642.15;;;-0.09;100.00
19789;BME280;10054;59.332;18.244;2023-02-11T09:26:47;100655.20;;;-0.14;100.00
19789;BME280;10054;59.332;18.244;2023-02-11T09:29:16;100665.62;;;-0.17;100.00
19789;BME280;10054;59.332;18.244;2023-02-11T09:31:45;100680.89;;;-0.25;100.00
19789;BME280;10054;59.332;18.244;2023-02-11T09:34:17;100686.55;;;-0.27;100.00
19789;BME280;10054;59.332;18.244;2023-02-11T09:36:47;100700.41;;;-0.30;100.00
19789;BME280;10054;59.332;18.244;2023-02-11T09:39:17;100706.43;;;-0.28;100.00
19789;BME280;10054;59.332;18.244;2023-02-11T09:42:06;100718.95;;;-0.27;100.00
19789;BME280;10054;59.332;18.244;2023-02-11T09:44:35;100732.34;;;-0.28;100.00
19789;BME280;10054;59.332;18.244;2023-02-11T09:47:20;100747.02;;;-0.27;100.00
19789;BME280;10054;59.332;18.244;2023-02-11T09:49:44;100754.92;;;-0.35;100.00
19789;BME280;10054;59.332;18.244;2023-02-11T09:55:02;100789.05;;;-0.35;100.00
19789;BME280;10054;59.332;18.244;2023-02-11T09:57:33;100792.50;;;-0.35;100.00
19789;BME280;10054;59.332;18.244;2023-02-11T10:00:15;100797.34;;;-0.40;100.00
19789;BME280;10054;59.332;18.244;2023-02-11T10:10:51;100808.62;;;-0.44;100.00
19789;BME280;10054;59.332;18.244;2023-02-11T10:19:18;100823.84;;;-0.51;100.00
19789;BME280;10054;59.332;18.244;2023-02-11T10:22:02;100831.53;;;-0.45;100.00
19789;BME280;10054;59.332;18.244;2023-02-11T10:24:27;100831.95;;;-0.44;100.00
19789;BME280;10054;59.332;18.244;2023-02-11T10:26:57;100837.52;;;-0.40;100.00
19789;BME280;10054;59.332;18.244;2023-02-11T10:29:46;100843.09;;;-0.38;100.00
19789;BME280;10054;59.332;18.244;2023-02-11T10:35:20;100865.70;;;-0.49;100.00
19789;BME280;10054;59.332;18.244;2023-02-11T10:37:44;100863.52;;;-0.46;100.00
19789;BME280;10054;59.332;18.244;2023-02-11T10:40:19;100866.06;;;-0.43;100.00
19789;BME280;10054;59.332;18.244;2023-02-11T10:42:56;100874.70;;;-0.43;100.00
19789;BME280;10054;59.332;18.244;2023-02-11T10:45:25;100894.98;;;-0.42;100.00
19789;BME280;10054;59.332;18.244;2023-02-11T10:47:54;100884.18;;;-0.42;100.00
19789;BME280;10054;59.332;18.244;2023-02-11T10:50:29;100894.89;;;-0.35;100.00
19789;BME280;10054;59.332;18.244;2023-02-11T10:53:15;100905.71;;;-0.37;100.00
19789;BME280;10054;59.332;18.244;2023-02-11T10:55:53;100911.73;;;-0.35;100.00
19789;BME280;10054;59.332;18.244;2023-02-11T10:58:28;100917.73;;;-0.31;100.00
19789;BME280;10054;59.332;18.244;2023-02-11T11:00:58;100920.30;;;-0.29;100.00
19789;BME280;10054;59.332;18.244;2023-02-11T11:03:32;100936.23;;;-0.25;100.00
19789;BME280;10054;59.332;18.244;2023-02-11T11:06:04;100940.98;;;-0.25;100.00
19789;BME280;10054;59.332;18.244;2023-02-11T11:13:57;100962.14;;;-0.24;100.00
19789;BME280;10054;59.332;18.244;2023-02-11T11:16:30;100971.22;;;-0.24;100.00
19789;BME280;10054;59.332;18.244;2023-02-11T11:21:51;100987.61;;;-0.22;100.00
19789;BME280;10054;59.332;18.244;2023-02-11T11:26:59;101006.25;;;-0.27;100.00
19789;BME280;10054;59.332;18.244;2023-02-11T11:29:42;101017.06;;;-0.27;100.00
19789;BME280;10054;59.332;18.244;2023-02-11T11:32:15;101022.73;;;-0.32;100.00
19789;BME280;10054;59.332;18.244;2023-02-11T11:34:54;101035.23;;;-0.29;100.00
19789;BME280;10054;59.332;18.244;2023-02-11T11:37:21;101047.36;;;-0.32;100.00
19789;BME280;10054;59.332;18.244;2023-02-11T11:42:33;101056.44;;;-0.32;100.00
19789;BME280;10054;59.332;18.244;2023-02-11T11:45:17;101068.13;;;-0.36;100.00
19789;BME280;10054;59.332;18.244;2023-02-11T11:47:35;101065.19;;;-0.43;100.00
19789;BME280;10054;59.332;18.244;2023-02-11T11:50:25;101080.66;;;-0.35;100.00
19789;BME280;10054;59.332;18.244;2023-02-11T11:52:58;101083.64;;;-0.31;100.00
19789;BME280;10054;59.332;18.244;2023-02-11T11:55:44;101093.98;;;-0.29;100.00
19789;BME280;10054;59.332;18.244;2023-02-11T11:58:19;101108.27;;;-0.31;100.00
19789;BME280;10054;59.332;18.244;2023-02-11T12:14:58;101153.88;;;-0.12;100.00
19789;BME280;10054;59.332;18.244;2023-02-11T12:20:18;101178.07;;;-0.11;100.00
19789;BME280;10054;59.332;18.244;2023-02-11T12:23:13;101181.52;;;-0.11;100.00
19789;BME280;10054;59.332;18.244;2023-02-11T12:25:36;101186.24;;;-0.07;100.00
19789;BME280;10054;59.332;18.244;2023-02-11T12:31:33;101202.27;;;-0.11;100.00
19789;BME280;10054;59.332;18.244;2023-02-11T12:34:23;101208.28;;;-0.07;100.00
19789;BME280;10054;59.332;18.244;2023-02-11T12:37:06;101210.86;;;-0.06;100.00
19789;BME280;10054;59.332;18.244;2023-02-11T12:48:25;101228.48;;;0.03;100.00
19789;BME280;10054;59.332;18.244;2023-02-11T12:59:43;101263.44;;;0.09;100.00
19789;BME280;10054;59.332;18.244;2023-02-11T13:02:20;101266.89;;;0.09;100.00
19789;BME280;10054;59.332;18.244;2023-02-11T13:04:51;101270.34;;;0.10;100.00
19789;BME280;10054;59.332;18.244;2023-02-11T13:07:28;101278.58;;;0.08;100.00
19789;BME280;10054;59.332;18.244;2023-02-11T13:10:21;101274.28;;;0.05;100.00
19789;BME280;10054;59.332;18.244;2023-02-11T13:12:49;101283.75;;;0.09;100.00
19789;BME280;10054;59.332;18.244;2023-02-11T13:15:37;101300.53;;;0.18;100.00
19789;BME280;10054;59.332;18.244;2023-02-11T13:21:14;101308.83;;;0.09;100.00
19789;BME280;10054;59.332;18.244;2023-02-11T13:26:28;101328.77;;;0.04;100.00
19789;BME280;10054;59.332;18.244;2023-02-11T13:32:04;101339.15;;;0.02;100.00
19789;BME280;10054;59.332;18.244;2023-02-11T13:37:24;101344.34;;;0.00;100.00
19789;BME280;10054;59.332;18.244;2023-02-11T13:39:58;101354.33;;;-0.01;100.00
19789;BME280;10054;59.332;18.244;2023-02-11T13:42:28;101361.73;;;-0.08;100.00
19789;BME280;10054;59.332;18.244;2023-02-11T13:44:58;101364.31;;;-0.06;100.00
19789;BME280;10054;59.332;18.244;2023-02-11T13:47:35;101373.41;;;-0.08;100.00
19789;BME280;10054;59.332;18.244;2023-02-11T13:50:06;101382.05;;;-0.07;100.00
19789;BME280;10054;59.332;18.244;2023-02-11T13:52:37;101388.59;;;-0.16;100.00
19789;BME280;10054;59.332;18.244;2023-02-11T13:55:22;101392.89;;;-0.14;100.00
19789;BME280;10054;59.332;18.244;2023-02-11T14:00:47;101404.56;;;-0.14;100.00
19789;BME280;10054;59.332;18.244;2023-02-11T14:03:27;101409.33;;;-0.16;100.00
19789;BME280;10054;59.332;18.244;2023-02-11T14:06:22;101415.38;;;-0.16;100.00
19789;BME280;10054;59.332;18.244;2023-02-11T14:11:46;101425.74;;;-0.14;100.00
19789;BME280;10054;59.332;18.244;2023-02-11T14:14:32;101428.77;;;-0.15;100.00
19789;BME280;10054;59.332;18.244;2023-02-11T14:19:41;101448.16;;;-0.04;100.00
19789;BME280;10054;59.332;18.244;2023-02-11T14:22:22;101455.07;;;-0.03;100.00
19789;BME280;10054;59.332;18.244;2023-02-11T14:24:57;101468.05;;;-0.05;100.00
19789;BME280;10054;59.332;18.244;2023-02-11T14:27:48;101467.23;;;-0.13;100.00
19789;BME280;10054;59.332;18.244;2023-02-11T14:41:33;101499.73;;;-0.36;100.00
19789;BME280;10054;59.332;18.244;2023-02-11T14:44:03;101511.41;;;-0.37;100.00
19789;BME280;10054;59.332;18.244;2023-02-11T14:46:33;101529.13;;;-0.40;100.00
19789;BME280;10054;59.332;18.244;2023-02-11T14:49:03;101537.34;;;-0.43;100.00
19789;BME280;10054;59.332;18.244;2023-02-11T14:51:40;101549.02;;;-0.45;100.00
19789;BME280;10054;59.332;18.244;2023-02-11T14:54:17;101551.18;;;-0.47;100.00
19789;BME280;10054;59.332;18.244;2023-02-11T14:57:10;101561.55;;;-0.50;100.00
19789;BME280;10054;59.332;18.244;2023-02-11T14:59:38;101568.47;;;-0.54;100.00
19789;BME280;10054;59.332;18.244;2023-02-11T15:02:27;101580.56;;;-0.54;100.00
19789;BME280;10054;59.332;18.244;2023-02-11T15:04:48;101580.56;;;-0.57;100.00
19789;BME280;10054;59.332;18.244;2023-02-11T15:07:17;101583.17;;;-0.63;100.00
19789;BME280;10054;59.332;18.244;2023-02-11T15:09:49;101593.11;;;-0.68;100.00
19789;BME280;10054;59.332;18.244;2023-02-11T15:12:22;101589.66;;;-0.73;100.00
19789;BME280;10054;59.332;18.244;2023-02-11T15:14:57;101597.46;;;-0.76;100.00
19789;BME280;10054;59.332;18.244;2023-02-11T15:17:28;101607.83;;;-0.79;100.00
19789;BME280;10054;59.332;18.244;2023-02-11T15:20:00;101609.12;;;-0.83;100.00
19789;BME280;10054;59.332;18.244;2023-02-11T15:22:35;101621.64;;;-0.87;100.00